createdAt,value
2022-09-14T00:02:00.673Z,13.61
2022-09-14T00:07:02.397Z,13.71
2022-09-14T00:12:04.002Z,13.73
2022-09-14T00:17:05.634Z,13.69
2022-09-14T00:22:07.314Z,13.66
2022-09-14T00:27:08.914Z,13.63
2022-09-14T00:32:10.648Z,13.60
2022-09-14T00:37:12.669Z,13.57
2022-09-14T00:42:19.422Z,13.59
2022-09-14T00:47:21.089Z,13.52
2022-09-14T00:52:26.604Z,13.49
2022-09-14T00:57:34.102Z,13.48
2022-09-14T01:02:36.795Z,13.49
2022-09-14T01:08:01.762Z,13.52
2022-09-14T01:13:44.902Z,13.47
2022-09-14T01:18:55.451Z,13.47
2022-09-14T01:24:23.344Z,13.49
2022-09-14T01:29:28.273Z,13.56
2022-09-14T01:34:52.377Z,13.58
2022-09-14T01:40:04.209Z,13.50
2022-09-14T01:45:10.254Z,13.50
2022-09-14T01:50:19.142Z,13.66
2022-09-14T01:55:31.310Z,13.62
2022-09-14T02:00:33.706Z,13.56
2022-09-14T02:06:01.783Z,13.47
2022-09-14T02:11:03.434Z,13.48
2022-09-14T02:16:05.234Z,13.61
2022-09-14T02:21:14.444Z,13.71
2022-09-14T02:26:18.311Z,13.78
2022-09-14T02:31:53.982Z,13.84
2022-09-14T02:37:11.665Z,13.91
2022-09-14T02:42:37.020Z,14.03
2022-09-14T02:47:55.263Z,14.12
2022-09-14T02:53:08.502Z,14.19
2022-09-14T02:58:12.861Z,14.22
2022-09-14T03:03:17.797Z,14.17
2022-09-14T03:08:19.384Z,14.12
2022-09-14T03:13:21.403Z,14.10
2022-09-14T03:18:23.023Z,14.19
2022-09-14T03:23:24.596Z,14.11
2022-09-14T03:28:26.144Z,14.03
2022-09-14T03:33:27.734Z,13.92
2022-09-14T03:38:30.158Z,13.90
2022-09-14T03:43:31.708Z,13.88
2022-09-14T03:48:33.448Z,13.88
2022-09-14T03:53:35.727Z,13.87
2022-09-14T03:58:38.242Z,13.86
2022-09-14T04:03:40.480Z,13.86
2022-09-14T04:08:43.565Z,13.87
2022-09-14T04:13:46.264Z,13.85
2022-09-14T04:18:48.679Z,13.91
2022-09-14T04:29:41.851Z,14.01
2022-09-14T04:34:43.394Z,13.97
2022-09-14T04:39:44.976Z,13.97
2022-09-14T04:44:46.504Z,13.93
2022-09-14T04:49:48.042Z,13.94
2022-09-14T04:54:49.548Z,13.87
2022-09-14T04:59:51.056Z,13.83
2022-09-14T05:04:52.627Z,13.85
2022-09-14T05:09:54.334Z,13.87
2022-09-14T05:14:55.879Z,13.92
2022-09-14T05:19:57.396Z,14.02
2022-09-14T05:24:58.939Z,14.05
2022-09-14T05:30:00.493Z,14.10
2022-09-14T05:35:02.026Z,14.35
2022-09-14T05:40:05.700Z,14.41
2022-09-14T05:45:07.808Z,14.45
2022-09-14T05:50:09.602Z,14.49
2022-09-14T05:55:11.143Z,14.58
2022-09-14T06:00:13.361Z,14.66
2022-09-14T06:05:15.289Z,14.73
2022-09-14T06:10:16.924Z,14.85
2022-09-14T06:15:18.473Z,15.00
2022-09-14T06:20:19.972Z,15.11
2022-09-14T06:25:21.486Z,15.09
2022-09-14T06:30:23.132Z,15.15
2022-09-14T06:35:24.643Z,15.24
2022-09-14T06:40:27.156Z,15.33
2022-09-14T06:45:30.775Z,15.48
2022-09-14T06:50:32.288Z,15.56
2022-09-14T06:55:33.851Z,15.64
2022-09-14T07:00:35.671Z,15.75
2022-09-14T07:05:37.205Z,15.85
2022-09-14T07:10:38.876Z,15.98
2022-09-14T07:15:40.506Z,16.04
2022-09-14T07:20:42.038Z,16.09
2022-09-14T07:25:43.588Z,16.06
2022-09-14T07:30:45.161Z,16.05
2022-09-14T07:35:46.774Z,15.98
2022-09-14T07:40:48.903Z,15.97
2022-09-14T07:45:50.505Z,16.02
2022-09-14T07:51:03.208Z,16.18
2022-09-14T07:56:05.542Z,16.32
2022-09-14T08:01:12.046Z,16.42
2022-09-14T08:06:29.007Z,16.43
2022-09-14T08:11:32.184Z,16.42
2022-09-14T08:16:38.717Z,16.50
2022-09-14T08:21:46.434Z,16.50
2022-09-14T08:26:52.874Z,16.56
2022-09-14T08:32:20.094Z,16.55
2022-09-14T08:37:21.954Z,16.54
2022-09-14T08:42:25.574Z,16.52
2022-09-14T08:47:32.236Z,16.50
2022-09-14T08:52:38.317Z,16.42
2022-09-14T08:57:39.816Z,16.43
2022-09-14T09:03:18.976Z,16.50
2022-09-14T09:08:49.946Z,16.68
2022-09-14T09:13:53.137Z,16.83
2022-09-14T09:19:03.054Z,16.98
2022-09-14T09:24:20.163Z,17.09
2022-09-14T09:29:21.986Z,17.37
2022-09-14T09:34:42.297Z,17.41
2022-09-14T09:39:50.554Z,17.47
2022-09-14T09:45:05.373Z,17.39
2022-09-14T09:50:13.421Z,17.26
2022-09-14T09:55:20.373Z,17.09
2022-09-14T10:00:29.916Z,16.99
2022-09-14T10:05:32.601Z,17.08
2022-09-14T10:10:34.112Z,17.11
2022-09-14T10:15:39.283Z,16.94
2022-09-14T10:21:06.646Z,16.88
2022-09-14T10:26:14.171Z,16.88
2022-09-14T10:31:18.796Z,16.82
2022-09-14T10:36:31.023Z,16.79
2022-09-14T10:42:02.532Z,16.82
2022-09-14T10:47:10.101Z,16.83
2022-09-14T10:52:30.030Z,16.76
2022-09-14T10:57:54.380Z,16.78
2022-09-14T11:03:07.763Z,16.84
2022-09-14T11:08:15.025Z,16.87
2022-09-14T11:13:37.856Z,16.81
2022-09-14T11:18:45.486Z,16.76
2022-09-14T11:23:57.215Z,16.70
2022-09-14T11:29:21.530Z,16.66
2022-09-14T11:34:37.964Z,16.68
2022-09-14T11:39:48.002Z,16.74
2022-09-14T11:44:58.159Z,16.81
2022-09-14T11:50:15.237Z,16.88
2022-09-14T11:55:18.383Z,17.03
2022-09-14T12:00:20.299Z,17.04
2022-09-14T12:05:21.840Z,17.20
2022-09-14T12:10:23.869Z,17.42
2022-09-14T12:15:26.088Z,17.43
2022-09-14T12:20:50.510Z,17.30
2022-09-14T12:26:10.486Z,17.17
2022-09-14T12:31:29.628Z,17.04
2022-09-14T12:36:37.385Z,17.01
2022-09-14T12:41:39.458Z,17.02
2022-09-14T12:46:41.169Z,17.11
2022-09-14T12:51:48.744Z,17.33
2022-09-14T12:57:28.685Z,17.79
2022-09-14T13:02:48.792Z,17.84
2022-09-14T13:07:51.254Z,17.97
2022-09-14T13:13:03.135Z,18.14
2022-09-14T13:18:07.557Z,18.15
2022-09-14T13:23:23.113Z,18.46
2022-09-14T13:28:27.946Z,18.58
2022-09-14T13:33:30.308Z,18.54
2022-09-14T13:38:34.685Z,18.46
2022-09-14T13:43:36.501Z,18.40
2022-09-14T13:48:42.867Z,18.38
2022-09-14T13:53:49.908Z,18.12
2022-09-14T13:59:18.466Z,17.81
2022-09-14T14:04:36.263Z,17.55
2022-09-14T14:09:42.624Z,17.34
2022-09-14T14:14:56.621Z,17.35
2022-09-14T14:20:00.902Z,17.24
2022-09-14T14:25:19.122Z,17.04
2022-09-14T14:30:21.914Z,16.98
2022-09-14T14:35:27.073Z,16.99
2022-09-14T14:40:28.805Z,16.92
2022-09-14T14:45:35.953Z,16.82
2022-09-14T14:50:38.512Z,16.83
2022-09-14T14:55:40.943Z,16.85
2022-09-14T15:00:43.111Z,16.83
2022-09-14T15:05:48.061Z,16.82
2022-09-14T15:10:56.092Z,16.95
2022-09-14T15:15:57.691Z,16.92
2022-09-14T15:20:59.339Z,16.87
2022-09-14T15:26:01.064Z,16.83
2022-09-14T15:31:07.111Z,16.77
2022-09-14T15:36:09.360Z,16.73
2022-09-14T15:41:12.575Z,16.69
2022-09-14T15:46:14.189Z,16.66
2022-09-14T15:51:17.201Z,16.67
2022-09-14T15:56:19.575Z,16.62
2022-09-14T16:01:21.238Z,16.54
2022-09-14T16:06:23.004Z,16.50
2022-09-14T16:11:24.769Z,16.49
2022-09-14T16:16:26.700Z,16.48
2022-09-14T16:21:28.361Z,16.47
2022-09-14T16:26:33.764Z,16.45
2022-09-14T16:31:37.465Z,16.41
2022-09-14T16:36:40.555Z,16.42
2022-09-14T16:41:43.581Z,16.42
2022-09-14T16:46:45.912Z,16.39
2022-09-14T16:51:47.568Z,16.34
2022-09-14T16:56:49.535Z,16.31
2022-09-14T17:01:54.523Z,16.31
2022-09-14T17:06:56.881Z,16.31
2022-09-14T17:11:59.086Z,16.31
2022-09-14T17:17:01.418Z,16.30
2022-09-14T17:22:03.931Z,16.27
2022-09-14T17:27:05.540Z,16.21
2022-09-14T17:32:09.275Z,16.14
2022-09-14T17:37:14.191Z,16.14
2022-09-14T17:42:15.809Z,16.13
2022-09-14T17:47:17.432Z,16.11
2022-09-14T17:52:18.999Z,16.11
2022-09-14T17:57:20.589Z,16.10
2022-09-14T18:02:24.681Z,16.13
2022-09-14T18:07:27.064Z,16.10
2022-09-14T18:12:32.357Z,16.12
2022-09-14T18:17:38.030Z,16.09
2022-09-14T18:22:39.600Z,16.03
2022-09-14T18:27:41.184Z,16.04
2022-09-14T18:32:42.738Z,16.07
2022-09-14T18:37:44.315Z,16.09
2022-09-14T18:42:46.076Z,16.07
2022-09-14T18:47:47.634Z,16.06
2022-09-14T18:52:50.695Z,16.06
2022-09-14T18:57:52.360Z,16.06
2022-09-14T19:02:57.359Z,16.14
2022-09-14T19:07:59.878Z,16.09
2022-09-14T19:13:01.585Z,16.10
2022-09-14T19:18:03.154Z,16.17
2022-09-14T19:23:07.048Z,16.11
2022-09-14T19:28:09.009Z,16.08
2022-09-14T19:33:10.663Z,15.99
2022-09-14T19:38:12.192Z,15.97
2022-09-14T19:43:13.795Z,15.88
2022-09-14T19:48:15.524Z,15.61
2022-09-14T19:53:17.095Z,15.41
2022-09-14T19:58:18.737Z,15.21
2022-09-14T20:03:20.312Z,15.07
2022-09-14T20:08:21.869Z,14.88
2022-09-14T20:13:23.495Z,14.75
2022-09-14T20:18:25.391Z,14.73
2022-09-14T20:23:29.271Z,14.67
2022-09-14T20:28:33.693Z,14.68
2022-09-14T20:33:37.844Z,14.62
2022-09-14T20:38:48.502Z,14.59
2022-09-14T20:43:53.260Z,14.64
2022-09-14T20:48:55.085Z,14.56
2022-09-14T20:53:57.141Z,14.58
2022-09-14T20:59:00.906Z,14.52
2022-09-14T21:04:13.936Z,14.51
2022-09-14T21:09:18.092Z,14.47
2022-09-14T21:14:20.593Z,14.44
2022-09-14T21:19:27.408Z,14.39
2022-09-14T21:24:31.034Z,14.37
2022-09-14T21:29:32.731Z,14.39
2022-09-14T21:34:34.358Z,14.45
2022-09-14T21:39:37.984Z,14.45
2022-09-14T21:44:39.568Z,14.40
2022-09-14T21:49:41.116Z,14.40
2022-09-14T21:54:42.676Z,14.32
2022-09-14T21:59:44.420Z,14.12
2022-09-14T22:04:46.224Z,14.13
2022-09-14T22:09:50.150Z,14.10
2022-09-14T22:14:52.018Z,14.10
2022-09-14T22:19:59.449Z,14.02
2022-09-14T22:25:01.077Z,13.88
2022-09-14T22:48:47.951Z,13.61
2022-09-14T22:54:48.059Z,13.55
2022-09-14T23:06:23.868Z,13.50
2022-09-14T23:12:13.782Z,13.40
2022-09-14T23:22:56.729Z,13.34
2022-09-14T23:28:23.248Z,13.39
2022-09-14T23:51:02.776Z,13.12
